sensor_id;sensor_type;location;lat;lon;timestamp;temperature;humidity
3648;DHT22;1840;48.892;15.312;2023-02-28T00:01:33;-2.70;87.90
3648;DHT22;1840;48.892;15.312;2023-02-28T00:04:02;-2.70;87.20
3648;DHT22;1840;48.892;15.312;2023-02-28T00:06:30;-2.60;87.90
3648;DHT22;1840;48.892;15.312;2023-02-28T00:08:58;-2.60;86.70
3648;DHT22;1840;48.892;15.312;2023-02-28T00:11:26;-2.40;86.60
3648;DHT22;1840;48.892;15.312;2023-02-28T00:13:54;-2.60;86.60
3648;DHT22;1840;48.892;15.312;2023-02-28T00:16:24;-2.90;86.60
3648;DHT22;1840;48.892;15.312;2023-02-28T00:18:52;-2.90;86.60
3648;DHT22;1840;48.892;15.312;2023-02-28T00:21:20;-3.00;86.50
3648;DHT22;1840;48.892;15.312;2023-02-28T00:23:48;-3.00;86.70
3648;DHT22;1840;48.892;15.312;2023-02-28T00:26:16;-3.10;87.20
3648;DHT22;1840;48.892;15.312;2023-02-28T00:28:47;-3.00;87.60
3648;DHT22;1840;48.892;15.312;2023-02-28T00:31:15;-3.00;87.30
3648;DHT22;1840;48.892;15.312;2023-02-28T00:33:44;-3.00;87.40
3648;DHT22;1840;48.892;15.312;2023-02-28T00:36:12;-3.00;86.70
3648;DHT22;1840;48.892;15.312;2023-02-28T00:38:41;-2.90;86.90
3648;DHT22;1840;48.892;15.312;2023-02-28T00:41:09;-2.80;86.00
3648;DHT22;1840;48.892;15.312;2023-02-28T00:43:38;-2.90;86.80
3648;DHT22;1840;48.892;15.312;2023-02-28T00:46:07;-2.80;86.40
3648;DHT22;1840;48.892;15.312;2023-02-28T00:48:35;-3.00;86.40
3648;DHT22;1840;48.892;15.312;2023-02-28T00:51:05;-2.90;86.40
3648;DHT22;1840;48.892;15.312;2023-02-28T00:53:33;-2.90;86.80
3648;DHT22;1840;48.892;15.312;2023-02-28T00:56:01;-2.80;86.20
3648;DHT22;1840;48.892;15.312;2023-02-28T00:58:30;-3.10;87.00
3648;DHT22;1840;48.892;15.312;2023-02-28T01:00:58;-3.10;87.00
3648;DHT22;1840;48.892;15.312;2023-02-28T01:03:26;-3.10;87.30
3648;DHT22;1840;48.892;15.312;2023-02-28T01:05:54;-3.00;86.90
3648;DHT22;1840;48.892;15.312;2023-02-28T01:08:23;-3.20;87.70
3648;DHT22;1840;48.892;15.312;2023-02-28T01:10:53;-3.20;87.80
3648;DHT22;1840;48.892;15.312;2023-02-28T01:13:21;-3.50;88.90
3648;DHT22;1840;48.892;15.312;2023-02-28T01:15:51;-3.30;88.60
3648;DHT22;1840;48.892;15.312;2023-02-28T01:18:20;-3.40;88.90
3648;DHT22;1840;48.892;15.312;2023-02-28T01:20:48;-3.30;88.40
3648;DHT22;1840;48.892;15.312;2023-02-28T01:23:18;-3.20;88.30
3648;DHT22;1840;48.892;15.312;2023-02-28T01:25:49;-3.20;88.10
3648;DHT22;1840;48.892;15.312;2023-02-28T01:28:18;-3.30;88.00
3648;DHT22;1840;48.892;15.312;2023-02-28T01:30:48;-3.30;87.90
3648;DHT22;1840;48.892;15.312;2023-02-28T01:33:16;-3.30;88.00
3648;DHT22;1840;48.892;15.312;2023-02-28T01:35:44;-3.40;88.10
3648;DHT22;1840;48.892;15.312;2023-02-28T01:38:12;-3.40;87.80
3648;DHT22;1840;48.892;15.312;2023-02-28T01:40:50;-3.50;87.90
3648;DHT22;1840;48.892;15.312;2023-02-28T01:43:22;-3.60;88.20
3648;DHT22;1840;48.892;15.312;2023-02-28T01:45:51;-3.60;88.80
3648;DHT22;1840;48.892;15.312;2023-02-28T01:48:21;-3.70;88.90
3648;DHT22;1840;48.892;15.312;2023-02-28T01:50:50;-3.70;88.70
3648;DHT22;1840;48.892;15.312;2023-02-28T01:53:21;-3.80;89.20
3648;DHT22;1840;48.892;15.312;2023-02-28T01:55:54;-3.90;89.40
3648;DHT22;1840;48.892;15.312;2023-02-28T01:58:22;-4.00;90.10
3648;DHT22;1840;48.892;15.312;2023-02-28T02:00:51;-4.10;90.30
3648;DHT22;1840;48.892;15.312;2023-02-28T02:03:20;-4.30;90.50
3648;DHT22;1840;48.892;15.312;2023-02-28T02:05:48;-4.30;90.60
3648;DHT22;1840;48.892;15.312;2023-02-28T02:08:19;-4.30;90.70
3648;DHT22;1840;48.892;15.312;2023-02-28T02:10:50;-4.30;90.50
3648;DHT22;1840;48.892;15.312;2023-02-28T02:13:37;-4.20;90.40
3648;DHT22;1840;48.892;15.312;2023-02-28T02:16:13;-4.20;90.30
3648;DHT22;1840;48.892;15.312;2023-02-28T02:18:46;-4.10;90.20
3648;DHT22;1840;48.892;15.312;2023-02-28T02:24:47;-4.10;90.30
3648;DHT22;1840;48.892;15.312;2023-02-28T02:27:24;-4.10;90.40
3648;DHT22;1840;48.892;15.312;2023-02-28T02:30:20;-4.20;90.40
3648;DHT22;1840;48.892;15.312;2023-02-28T02:33:27;-4.30;90.60
3648;DHT22;1840;48.892;15.312;2023-02-28T02:36:01;-4.40;90.70
3648;DHT22;1840;48.892;15.312;2023-02-28T02:38:33;-4.40;90.80
3648;DHT22;1840;48.892;15.312;2023-02-28T02:41:09;-4.40;90.80
3648;DHT22;1840;48.892;15.312;2023-02-28T02:43:43;-4.40;90.70
3648;DHT22;1840;48.892;15.312;2023-02-28T02:46:16;-4.50;90.80
3648;DHT22;1840;48.892;15.312;2023-02-28T02:48:46;-4.50;90.80
3648;DHT22;1840;48.892;15.312;2023-02-28T02:51:17;-4.50;90.80
3648;DHT22;1840;48.892;15.312;2023-02-28T02:53:48;-4.50;90.70
3648;DHT22;1840;48.892;15.312;2023-02-28T02:56:21;-4.60;91.00
3648;DHT22;1840;48.892;15.312;2023-02-28T02:58:52;-4.60;91.10
3648;DHT22;1840;48.892;15.312;2023-02-28T03:01:24;-4.70;91.00
3648;DHT22;1840;48.892;15.312;2023-02-28T03:03:58;-4.90;91.10
3648;DHT22;1840;48.892;15.312;2023-02-28T03:06:28;-4.90;91.30
3648;DHT22;1840;48.892;15.312;2023-02-28T03:08:56;-5.00;91.60
3648;DHT22;1840;48.892;15.312;2023-02-28T03:11:24;-5.00;91.40
3648;DHT22;1840;48.892;15.312;2023-02-28T03:14:06;-5.00;91.50
3648;DHT22;1840;48.892;15.312;2023-02-28T03:17:02;-4.90;91.60
3648;DHT22;1840;48.892;15.312;2023-02-28T03:19:43;-5.00;91.60
3648;DHT22;1840;48.892;15.312;2023-02-28T03:22:27;-5.10;91.70
3648;DHT22;1840;48.892;15.312;2023-02-28T03:25:05;-5.10;91.80
3648;DHT22;1840;48.892;15.312;2023-02-28T03:27:38;-5.10;92.00
3648;DHT22;1840;48.892;15.312;2023-02-28T03:30:10;-5.10;92.00
3648;DHT22;1840;48.892;15.312;2023-02-28T03:32:42;-5.20;91.80
3648;DHT22;1840;48.892;15.312;2023-02-28T03:35:18;-5.20;92.30
3648;DHT22;1840;48.892;15.312;2023-02-28T03:37:53;-5.30;92.10
3648;DHT22;1840;48.892;15.312;2023-02-28T03:40:25;-5.20;92.20
3648;DHT22;1840;48.892;15.312;2023-02-28T03:42:58;-5.20;92.00
3648;DHT22;1840;48.892;15.312;2023-02-28T03:45:29;-5.30;92.20
3648;DHT22;1840;48.892;15.312;2023-02-28T03:48:01;-5.10;92.10
3648;DHT22;1840;48.892;15.312;2023-02-28T03:50:35;-5.10;92.00
3648;DHT22;1840;48.892;15.312;2023-02-28T03:53:10;-5.10;91.90
3648;DHT22;1840;48.892;15.312;2023-02-28T03:55:44;-5.00;91.80
3648;DHT22;1840;48.892;15.312;2023-02-28T03:58:16;-4.90;91.70
3648;DHT22;1840;48.892;15.312;2023-02-28T04:00:52;-5.00;91.50
3648;DHT22;1840;48.892;15.312;2023-02-28T04:03:23;-5.00;91.50
3648;DHT22;1840;48.892;15.312;2023-02-28T04:05:52;-5.10;91.80
3648;DHT22;1840;48.892;15.312;2023-02-28T04:08:22;-5.00;91.60
3648;DHT22;1840;48.892;15.312;2023-02-28T04:10:55;-5.00;91.70
3648;DHT22;1840;48.892;15.312;2023-02-28T04:13:24;-5.10;91.70
3648;DHT22;1840;48.892;15.312;2023-02-28T04:15:52;-5.10;91.90
3648;DHT22;1840;48.892;15.312;2023-02-28T04:18:20;-5.10;91.80
3648;DHT22;1840;48.892;15.312;2023-02-28T04:20:48;-5.00;91.70
3648;DHT22;1840;48.892;15.312;2023-02-28T04:23:17;-5.00;91.70
3648;DHT22;1840;48.892;15.312;2023-02-28T04:25:46;-5.00;91.70
3648;DHT22;1840;48.892;15.312;2023-02-28T04:28:15;-5.00;91.80
3648;DHT22;1840;48.892;15.312;2023-02-28T04:30:43;-5.00;91.70
3648;DHT22;1840;48.892;15.312;2023-02-28T04:33:11;-5.10;91.60
3648;DHT22;1840;48.892;15.312;2023-02-28T04:35:39;-5.10;91.60
3648;DHT22;1840;48.892;15.312;2023-02-28T04:38:07;-5.10;91.60
3648;DHT22;1840;48.892;15.312;2023-02-28T04:40:35;-5.00;91.90
3648;DHT22;1840;48.892;15.312;2023-02-28T04:43:05;-5.10;91.80
3648;DHT22;1840;48.892;15.312;2023-02-28T04:45:33;-5.20;91.70
3648;DHT22;1840;48.892;15.312;2023-02-28T04:48:01;-5.10;91.80
3648;DHT22;1840;48.892;15.312;2023-02-28T04:50:29;-5.10;91.90
3648;DHT22;1840;48.892;15.312;2023-02-28T04:52:57;-5.20;91.80
3648;DHT22;1840;48.892;15.312;2023-02-28T04:55:25;-5.30;91.80
3648;DHT22;1840;48.892;15.312;2023-02-28T04:57:53;-5.20;92.00
3648;DHT22;1840;48.892;15.312;2023-02-28T05:00:22;-5.20;91.90
3648;DHT22;1840;48.892;15.312;2023-02-28T05:02:50;-5.10;91.80
3648;DHT22;1840;48.892;15.312;2023-02-28T05:05:18;-5.20;91.80
3648;DHT22;1840;48.892;15.312;2023-02-28T05:07:46;-5.20;91.90
3648;DHT22;1840;48.892;15.312;2023-02-28T05:10:14;-5.10;92.10
3648;DHT22;1840;48.892;15.312;2023-02-28T05:12:42;-5.10;91.70
3648;DHT22;1840;48.892;15.312;2023-02-28T05:15:13;-5.00;91.80
3648;DHT22;1840;48.892;15.312;2023-02-28T05:17:43;-5.10;91.70
3648;DHT22;1840;48.892;15.312;2023-02-28T05:20:11;-5.00;91.70
3648;DHT22;1840;48.892;15.312;2023-02-28T05:22:42;-5.10;92.00
3648;DHT22;1840;48.892;15.312;2023-02-28T05:25:13;-5.10;91.80
3648;DHT22;1840;48.892;15.312;2023-02-28T05:27:41;-5.10;92.00
3648;DHT22;1840;48.892;15.312;2023-02-28T05:30:10;-5.10;92.00
3648;DHT22;1840;48.892;15.312;2023-02-28T05:32:39;-5.10;92.10
3648;DHT22;1840;48.892;15.312;2023-02-28T05:35:11;-5.00;91.80
3648;DHT22;1840;48.892;15.312;2023-02-28T05:37:39;-5.10;92.00
3648;DHT22;1840;48.892;15.312;2023-02-28T05:40:08;-5.00;91.70
3648;DHT22;1840;48.892;15.312;2023-02-28T05:42:38;-5.00;92.00
3648;DHT22;1840;48.892;15.312;2023-02-28T05:45:07;-5.00;91.80
3648;DHT22;1840;48.892;15.312;2023-02-28T05:47:35;-5.10;92.10
3648;DHT22;1840;48.892;15.312;2023-02-28T05:50:04;-5.10;92.20
3648;DHT22;1840;48.892;15.312;2023-02-28T05:52:34;-5.10;92.20
3648;DHT22;1840;48.892;15.312;2023-02-28T05:55:02;-5.00;92.40
3648;DHT22;1840;48.892;15.312;2023-02-28T05:57:30;-5.00;92.00
3648;DHT22;1840;48.892;15.312;2023-02-28T05:59:58;-5.00;92.00
3648;DHT22;1840;48.892;15.312;2023-02-28T06:02:26;-4.90;92.20
3648;DHT22;1840;48.892;15.312;2023-02-28T06:04:54;-4.90;92.00
3648;DHT22;1840;48.892;15.312;2023-02-28T06:07:22;-4.90;92.20
3648;DHT22;1840;48.892;15.312;2023-02-28T06:09:52;-4.90;92.50
3648;DHT22;1840;48.892;15.312;2023-02-28T06:12:20;-4.90;92.30
3648;DHT22;1840;48.892;15.312;2023-02-28T06:14:48;-4.90;92.30
3648;DHT22;1840;48.892;15.312;2023-02-28T06:17:16;-4.90;92.50
3648;DHT22;1840;48.892;15.312;2023-02-28T06:19:44;-4.90;92.40
3648;DHT22;1840;48.892;15.312;2023-02-28T06:22:12;-4.80;92.20
3648;DHT22;1840;48.892;15.312;2023-02-28T06:24:40;-4.90;92.40
3648;DHT22;1840;48.892;15.312;2023-02-28T06:27:09;-4.80;92.40
3648;DHT22;1840;48.892;15.312;2023-02-28T06:29:37;-4.70;92.20
3648;DHT22;1840;48.892;15.312;2023-02-28T06:32:06;-4.70;92.50
3648;DHT22;1840;48.892;15.312;2023-02-28T06:34:34;-4.70;92.40
3648;DHT22;1840;48.892;15.312;2023-02-28T06:37:03;-4.90;93.00
3648;DHT22;1840;48.892;15.312;2023-02-28T06:39:31;-4.60;93.00
3648;DHT22;1840;48.892;15.312;2023-02-28T06:41:59;-4.80;93.00
3648;DHT22;1840;48.892;15.312;2023-02-28T06:44:28;-4.40;92.90
3648;DHT22;1840;48.892;15.312;2023-02-28T06:47:03;-4.30;92.60
3648;DHT22;1840;48.892;15.312;2023-02-28T06:49:33;-4.30;92.70
3648;DHT22;1840;48.892;15.312;2023-02-28T06:52:02;-4.00;92.70
3648;DHT22;1840;48.892;15.312;2023-02-28T06:54:31;-4.10;92.30
3648;DHT22;1840;48.892;15.312;2023-02-28T06:56:58;-3.90;93.00
3648;DHT22;1840;48.892;15.312;2023-02-28T06:59:26;-3.20;92.30
3648;DHT22;1840;48.892;15.312;2023-02-28T07:01:56;-3.40;92.10
3648;DHT22;1840;48.892;15.312;2023-02-28T07:04:24;-2.90;91.90
3648;DHT22;1840;48.892;15.312;2023-02-28T07:06:52;-2.80;91.00
3648;DHT22;1840;48.892;15.312;2023-02-28T07:09:23;-2.60;91.20
3648;DHT22;1840;48.892;15.312;2023-02-28T07:11:51;-2.70;91.00
3648;DHT22;1840;48.892;15.312;2023-02-28T07:14:19;-2.70;91.10
3648;DHT22;1840;48.892;15.312;2023-02-28T07:16:47;-2.70;90.80
3648;DHT22;1840;48.892;15.312;2023-02-28T07:19:16;-2.50;91.20
3648;DHT22;1840;48.892;15.312;2023-02-28T07:21:44;-2.40;91.30
3648;DHT22;1840;48.892;15.312;2023-02-28T07:24:12;-2.40;90.60
3648;DHT22;1840;48.892;15.312;2023-02-28T07:26:42;-2.00;91.00
3648;DHT22;1840;48.892;15.312;2023-02-28T07:29:10;-1.40;90.40
3648;DHT22;1840;48.892;15.312;2023-02-28T07:31:38;-0.80;90.00
3648;DHT22;1840;48.892;15.312;2023-02-28T07:34:06;-0.50;87.90
3648;DHT22;1840;48.892;15.312;2023-02-28T07:36:36;-0.70;87.60
3648;DHT22;1840;48.892;15.312;2023-02-28T07:39:04;-0.80;87.60
3648;DHT22;1840;48.892;15.312;2023-02-28T07:41:32;-0.90;87.90
3648;DHT22;1840;48.892;15.312;2023-02-28T07:44:04;-0.90;88.00
3648;DHT22;1840;48.892;15.312;2023-02-28T07:46:32;-1.10;87.50
3648;DHT22;1840;48.892;15.312;2023-02-28T07:49:03;-1.20;88.10
3648;DHT22;1840;48.892;15.312;2023-02-28T07:51:31;-1.00;88.10
3648;DHT22;1840;48.892;15.312;2023-02-28T07:54:00;-1.20;88.80
3648;DHT22;1840;48.892;15.312;2023-02-28T07:56:28;-1.60;88.30
3648;DHT22;1840;48.892;15.312;2023-02-28T07:58:57;-1.60;89.20
3648;DHT22;1840;48.892;15.312;2023-02-28T08:01:25;-1.80;90.00
3648;DHT22;1840;48.892;15.312;2023-02-28T08:03:53;-1.80;90.00
3648;DHT22;1840;48.892;15.312;2023-02-28T08:06:22;-1.70;90.10
3648;DHT22;1840;48.892;15.312;2023-02-28T08:08:51;-1.80;90.10
3648;DHT22;1840;48.892;15.312;2023-02-28T08:11:21;-1.60;90.10
3648;DHT22;1840;48.892;15.312;2023-02-28T08:13:49;-1.70;89.40
3648;DHT22;1840;48.892;15.312;2023-02-28T08:16:17;-1.60;90.00
3648;DHT22;1840;48.892;15.312;2023-02-28T08:18:49;-1.50;89.30
3648;DHT22;1840;48.892;15.312;2023-02-28T08:21:18;-1.60;90.00
3648;DHT22;1840;48.892;15.312;2023-02-28T08:23:46;-1.30;89.80
3648;DHT22;1840;48.892;15.312;2023-02-28T08:26:15;-1.20;89.00
3648;DHT22;1840;48.892;15.312;2023-02-28T08:28:44;-0.80;89.50
3648;DHT22;1840;48.892;15.312;2023-02-28T08:31:14;-0.60;88.50
3648;DHT22;1840;48.892;15.312;2023-02-28T08:33:44;-0.90;88.00
3648;DHT22;1840;48.892;15.312;2023-02-28T08:36:12;-1.10;88.70
3648;DHT22;1840;48.892;15.312;2023-02-28T08:38:40;-1.30;88.60
3648;DHT22;1840;48.892;15.312;2023-02-28T08:41:11;-1.50;90.00
3648;DHT22;1840;48.892;15.312;2023-02-28T08:43:39;-1.60;90.00
3648;DHT22;1840;48.892;15.312;2023-02-28T08:46:11;-1.50;90.20
3648;DHT22;1840;48.892;15.312;2023-02-28T08:48:40;-1.60;90.40
3648;DHT22;1840;48.892;15.312;2023-02-28T08:51:10;-1.50;90.10
3648;DHT22;1840;48.892;15.312;2023-02-28T08:53:39;-1.50;90.20
3648;DHT22;1840;48.892;15.312;2023-02-28T08:56:09;-2.00;90.40
3648;DHT22;1840;48.892;15.312;2023-02-28T08:58:37;-2.20;90.70
3648;DHT22;1840;48.892;15.312;2023-02-28T09:01:11;-1.70;90.90
3648;DHT22;1840;48.892;15.312;2023-02-28T09:03:40;-1.70;90.70
3648;DHT22;1840;48.892;15.312;2023-02-28T09:06:12;-1.60;90.50
3648;DHT22;1840;48.892;15.312;2023-02-28T09:08:41;-1.60;90.90
3648;DHT22;1840;48.892;15.312;2023-02-28T09:11:11;-1.10;90.70
3648;DHT22;1840;48.892;15.312;2023-02-28T09:13:40;-0.70;90.30
3648;DHT22;1840;48.892;15.312;2023-02-28T09:16:12;-0.70;89.80
3648;DHT22;1840;48.892;15.312;2023-02-28T09:18:40;-0.20;89.80
3648;DHT22;1840;48.892;15.312;2023-02-28T09:21:10;0.30;87.30
3648;DHT22;1840;48.892;15.312;2023-02-28T09:23:41;0.20;87.50
3648;DHT22;1840;48.892;15.312;2023-02-28T09:26:14;0.30;87.30
3648;DHT22;1840;48.892;15.312;2023-02-28T09:28:43;0.20;88.00
3648;DHT22;1840;48.892;15.312;2023-02-28T09:31:15;0.40;87.50
3648;DHT22;1840;48.892;15.312;2023-02-28T09:33:47;0.60;87.50
3648;DHT22;1840;48.892;15.312;2023-02-28T09:36:16;0.50;86.50
3648;DHT22;1840;48.892;15.312;2023-02-28T09:38:44;0.50;86.60
3648;DHT22;1840;48.892;15.312;2023-02-28T09:41:17;0.20;85.90
3648;DHT22;1840;48.892;15.312;2023-02-28T09:43:49;0.30;87.00
3648;DHT22;1840;48.892;15.312;2023-02-28T09:46:28;0.60;86.60
3648;DHT22;1840;48.892;15.312;2023-02-28T09:49:01;0.00;87.10
3648;DHT22;1840;48.892;15.312;2023-02-28T09:51:45;0.10;86.70
3648;DHT22;1840;48.892;15.312;2023-02-28T09:54:17;-0.60;87.70
3648;DHT22;1840;48.892;15.312;2023-02-28T09:56:48;-0.50;88.90
3648;DHT22;1840;48.892;15.312;2023-02-28T09:59:29;-0.70;88.90
3648;DHT22;1840;48.892;15.312;2023-02-28T10:02:09;-1.10;89.10
3648;DHT22;1840;48.892;15.312;2023-02-28T10:04:44;-1.20;90.20
3648;DHT22;1840;48.892;15.312;2023-02-28T10:07:31;-0.90;90.30
3648;DHT22;1840;48.892;15.312;2023-02-28T10:10:04;-0.60;89.40
3648;DHT22;1840;48.892;15.312;2023-02-28T10:12:36;-0.60;89.70
3648;DHT22;1840;48.892;15.312;2023-02-28T10:15:09;-0.80;89.30
3648;DHT22;1840;48.892;15.312;2023-02-28T10:17:45;-1.00;90.00
3648;DHT22;1840;48.892;15.312;2023-02-28T10:20:35;-0.70;90.40
3648;DHT22;1840;48.892;15.312;2023-02-28T10:23:09;-1.00;90.30
3648;DHT22;1840;48.892;15.312;2023-02-28T10:25:39;-0.60;90.40
3648;DHT22;1840;48.892;15.312;2023-02-28T10:28:12;-0.60;90.00
3648;DHT22;1840;48.892;15.312;2023-02-28T10:30:42;-0.50;90.00
3648;DHT22;1840;48.892;15.312;2023-02-28T10:33:19;-0.40;90.00
3648;DHT22;1840;48.892;15.312;2023-02-28T10:35:49;-0.60;89.60
3648;DHT22;1840;48.892;15.312;2023-02-28T10:38:19;-0.50;90.00
3648;DHT22;1840;48.892;15.312;2023-02-28T10:40:48;-0.30;89.70
3648;DHT22;1840;48.892;15.312;2023-02-28T10:43:21;-0.10;90.00
3648;DHT22;1840;48.892;15.312;2023-02-28T10:45:55;-0.10;89.20
3648;DHT22;1840;48.892;15.312;2023-02-28T10:48:33;-0.30;89.30
3648;DHT22;1840;48.892;15.312;2023-02-28T10:51:03;-0.70;90.40
3648;DHT22;1840;48.892;15.312;2023-02-28T10:53:34;-0.40;90.20
3648;DHT22;1840;48.892;15.312;2023-02-28T10:56:24;-0.20;89.80
3648;DHT22;1840;48.892;15.312;2023-02-28T10:58:55;0.00;89.80
3648;DHT22;1840;48.892;15.312;2023-02-28T11:01:27;0.00;88.70
3648;DHT22;1840;48.892;15.312;2023-02-28T11:04:03;-0.40;89.40
3648;DHT22;1840;48.892;15.312;2023-02-28T11:06:44;-0.60;90.10
3648;DHT22;1840;48.892;15.312;2023-02-28T11:09:20;-0.30;89.40
3648;DHT22;1840;48.892;15.312;2023-02-28T11:11:49;-0.10;90.00
3648;DHT22;1840;48.892;15.312;2023-02-28T11:14:20;0.40;89.90
3648;DHT22;1840;48.892;15.312;2023-02-28T11:16:50;0.50;88.20
3648;DHT22;1840;48.892;15.312;2023-02-28T11:19:23;-0.10;89.00
3648;DHT22;1840;48.892;15.312;2023-02-28T11:21:55;0.30;87.90
3648;DHT22;1840;48.892;15.312;2023-02-28T11:24:27;0.00;87.60
3648;DHT22;1840;48.892;15.312;2023-02-28T11:26:56;-0.20;88.20
3648;DHT22;1840;48.892;15.312;2023-02-28T11:29:26;-0.40;89.10
3648;DHT22;1840;48.892;15.312;2023-02-28T11:32:03;0.10;88.70
3648;DHT22;1840;48.892;15.312;2023-02-28T11:34:33;0.20;88.80
3648;DHT22;1840;48.892;15.312;2023-02-28T11:37:02;0.30;88.50
3648;DHT22;1840;48.892;15.312;2023-02-28T11:39:32;0.20;88.10
3648;DHT22;1840;48.892;15.312;2023-02-28T11:42:13;0.10;88.20
3648;DHT22;1840;48.892;15.312;2023-02-28T11:44:57;0.30;89.20
3648;DHT22;1840;48.892;15.312;2023-02-28T11:47:33;0.60;86.90
3648;DHT22;1840;48.892;15.312;2023-02-28T11:50:16;0.80;87.60
3648;DHT22;1840;48.892;15.312;2023-02-28T11:52:52;1.00;87.30
3648;DHT22;1840;48.892;15.312;2023-02-28T11:55:25;1.00;86.80
3648;DHT22;1840;48.892;15.312;2023-02-28T11:58:06;0.90;87.50
3648;DHT22;1840;48.892;15.312;2023-02-28T12:00:50;1.30;86.00
3648;DHT22;1840;48.892;15.312;2023-02-28T12:03:27;1.10;86.70
3648;DHT22;1840;48.892;15.312;2023-02-28T12:06:04;0.90;86.80
3648;DHT22;1840;48.892;15.312;2023-02-28T12:08:47;0.90;86.80
3648;DHT22;1840;48.892;15.312;2023-02-28T12:11:27;0.90;87.40
3648;DHT22;1840;48.892;15.312;2023-02-28T12:14:19;0.90;87.90
3648;DHT22;1840;48.892;15.312;2023-02-28T12:17:03;1.30;87.40
3648;DHT22;1840;48.892;15.312;2023-02-28T12:19:45;1.10;85.40
3648;DHT22;1840;48.892;15.312;2023-02-28T12:22:27;0.80;86.60
3648;DHT22;1840;48.892;15.312;2023-02-28T12:27:59;0.20;87.50
3648;DHT22;1840;48.892;15.312;2023-02-28T12:30:31;0.00;87.80
3648;DHT22;1840;48.892;15.312;2023-02-28T12:33:04;0.40;87.30
3648;DHT22;1840;48.892;15.312;2023-02-28T12:35:36;0.30;87.90
3648;DHT22;1840;48.892;15.312;2023-02-28T12:38:10;0.30;88.40
3648;DHT22;1840;48.892;15.312;2023-02-28T12:40:44;0.60;87.80
3648;DHT22;1840;48.892;15.312;2023-02-28T12:43:15;0.70;87.40
3648;DHT22;1840;48.892;15.312;2023-02-28T12:45:46;0.60;86.90
3648;DHT22;1840;48.892;15.312;2023-02-28T12:48:21;0.60;87.00
3648;DHT22;1840;48.892;15.312;2023-02-28T12:50:52;0.70;86.70
3648;DHT22;1840;48.892;15.312;2023-02-28T12:53:25;0.90;86.90
3648;DHT22;1840;48.892;15.312;2023-02-28T12:56:02;1.20;86.90
3648;DHT22;1840;48.892;15.312;2023-02-28T12:58:38;1.30;86.00
3648;DHT22;1840;48.892;15.312;2023-02-28T13:01:38;1.20;85.20
3648;DHT22;1840;48.892;15.312;2023-02-28T13:07:31;0.90;86.30
3648;DHT22;1840;48.892;15.312;2023-02-28T13:10:05;0.90;86.10
3648;DHT22;1840;48.892;15.312;2023-02-28T13:12:34;0.70;86.30
3648;DHT22;1840;48.892;15.312;2023-02-28T13:15:06;0.90;86.50
3648;DHT22;1840;48.892;15.312;2023-02-28T13:17:39;1.00;86.10
3648;DHT22;1840;48.892;15.312;2023-02-28T13:20:16;1.00;86.10
3648;DHT22;1840;48.892;15.312;2023-02-28T13:22:46;0.90;86.10
3648;DHT22;1840;48.892;15.312;2023-02-28T13:34:42;0.90;85.30
3648;DHT22;1840;48.892;15.312;2023-02-28T13:37:35;0.90;86.70
3648;DHT22;1840;48.892;15.312;2023-02-28T13:40:27;1.20;85.80
3648;DHT22;1840;48.892;15.312;2023-02-28T13:42:56;1.30;86.20
3648;DHT22;1840;48.892;15.312;2023-02-28T13:45:27;1.50;85.80
3648;DHT22;1840;48.892;15.312;2023-02-28T13:48:00;1.50;85.30
3648;DHT22;1840;48.892;15.312;2023-02-28T13:50:34;1.40;85.70
3648;DHT22;1840;48.892;15.312;2023-02-28T13:53:32;1.10;85.70
3648;DHT22;1840;48.892;15.312;2023-02-28T13:56:10;1.20;85.70
3648;DHT22;1840;48.892;15.312;2023-02-28T13:58:54;1.20;85.60
3648;DHT22;1840;48.892;15.312;2023-02-28T14:01:43;1.20;85.70
3648;DHT22;1840;48.892;15.312;2023-02-28T14:04:41;1.00;85.80
3648;DHT22;1840;48.892;15.312;2023-02-28T14:07:18;0.90;86.50
3648;DHT22;1840;48.892;15.312;2023-02-28T14:09:56;0.90;85.40
3648;DHT22;1840;48.892;15.312;2023-02-28T14:12:51;0.90;86.10
3648;DHT22;1840;48.892;15.312;2023-02-28T14:15:41;0.80;86.30
3648;DHT22;1840;48.892;15.312;2023-02-28T14:18:17;0.80;86.70
3648;DHT22;1840;48.892;15.312;2023-02-28T14:20:48;0.70;85.80
3648;DHT22;1840;48.892;15.312;2023-02-28T14:23:30;0.60;86.00
3648;DHT22;1840;48.892;15.312;2023-02-28T14:26:03;0.60;86.50
3648;DHT22;1840;48.892;15.312;2023-02-28T14:28:48;0.70;86.00
3648;DHT22;1840;48.892;15.312;2023-02-28T14:31:23;0.80;85.90
3648;DHT22;1840;48.892;15.312;2023-02-28T14:34:17;1.00;85.60
3648;DHT22;1840;48.892;15.312;2023-02-28T14:36:53;1.00;85.00
3648;DHT22;1840;48.892;15.312;2023-02-28T14:39:24;1.30;85.50
3648;DHT22;1840;48.892;15.312;2023-02-28T14:41:53;0.90;84.30
3648;DHT22;1840;48.892;15.312;2023-02-28T14:44:22;0.70;86.10
3648;DHT22;1840;48.892;15.312;2023-02-28T14:46:54;0.80;85.00
3648;DHT22;1840;48.892;15.312;2023-02-28T14:49:27;0.80;85.60
3648;DHT22;1840;48.892;15.312;2023-02-28T14:52:06;1.00;84.90
3648;DHT22;1840;48.892;15.312;2023-02-28T14:54:37;0.90;84.70
3648;DHT22;1840;48.892;15.312;2023-02-28T14:57:05;0.90;85.40
3648;DHT22;1840;48.892;15.312;2023-02-28T14:59:35;0.80;85.60
3648;DHT22;1840;48.892;15.312;2023-02-28T15:02:21;0.50;86.50
3648;DHT22;1840;48.892;15.312;2023-02-28T15:04:53;0.50;85.80
3648;DHT22;1840;48.892;15.312;2023-02-28T15:07:25;0.50;85.20
3648;DHT22;1840;48.892;15.312;2023-02-28T15:10:13;0.60;85.00
3648;DHT22;1840;48.892;15.312;2023-02-28T15:12:41;0.90;85.00
3648;DHT22;1840;48.892;15.312;2023-02-28T15:15:16;0.80;84.80
3648;DHT22;1840;48.892;15.312;2023-02-28T15:17:46;0.80;84.70
3648;DHT22;1840;48.892;15.312;2023-02-28T15:20:18;0.90;84.70
3648;DHT22;1840;48.892;15.312;2023-02-28T15:22:56;0.80;84.00
3648;DHT22;1840;48.892;15.312;2023-02-28T15:25:25;1.00;84.10
3648;DHT22;1840;48.892;15.312;2023-02-28T15:27:55;1.10;83.80
3648;DHT22;1840;48.892;15.312;2023-02-28T15:30:26;1.00;84.50
3648;DHT22;1840;48.892;15.312;2023-02-28T15:33:06;0.90;84.50
3648;DHT22;1840;48.892;15.312;2023-02-28T15:35:38;0.80;85.60
3648;DHT22;1840;48.892;15.312;2023-02-28T15:38:16;0.90;85.10
3648;DHT22;1840;48.892;15.312;2023-02-28T15:40:46;0.80;84.70
3648;DHT22;1840;48.892;15.312;2023-02-28T15:43:25;0.90;85.00
3648;DHT22;1840;48.892;15.312;2023-02-28T15:45:57;1.00;84.60
3648;DHT22;1840;48.892;15.312;2023-02-28T15:48:29;1.00;84.70
3648;DHT22;1840;48.892;15.312;2023-02-28T15:51:02;0.60;84.40
3648;DHT22;1840;48.892;15.312;2023-02-28T15:53:35;0.50;84.40
3648;DHT22;1840;48.892;15.312;2023-02-28T15:56:06;0.50;84.40
3648;DHT22;1840;48.892;15.312;2023-02-28T15:58:35;0.40;84.50
3648;DHT22;1840;48.892;15.312;2023-02-28T16:01:07;0.40;84.80
3648;DHT22;1840;48.892;15.312;2023-02-28T16:03:40;0.20;84.90
3648;DHT22;1840;48.892;15.312;2023-02-28T16:06:32;0.20;85.20
3648;DHT22;1840;48.892;15.312;2023-02-28T16:09:04;0.20;84.90
3648;DHT22;1840;48.892;15.312;2023-02-28T16:11:37;0.20;84.80
3648;DHT22;1840;48.892;15.312;2023-02-28T16:14:05;0.20;85.50
3648;DHT22;1840;48.892;15.312;2023-02-28T16:16:33;0.10;85.40
3648;DHT22;1840;48.892;15.312;2023-02-28T16:19:02;0.10;85.00
3648;DHT22;1840;48.892;15.312;2023-02-28T16:21:30;0.10;84.70
3648;DHT22;1840;48.892;15.312;2023-02-28T16:23:58;0.00;85.20
3648;DHT22;1840;48.892;15.312;2023-02-28T16:26:27;-0.10;85.80
3648;DHT22;1840;48.892;15.312;2023-02-28T16:28:55;-0.10;85.30
3648;DHT22;1840;48.892;15.312;2023-02-28T16:31:23;-0.10;85.00
3648;DHT22;1840;48.892;15.312;2023-02-28T16:33:51;-0.20;85.30
3648;DHT22;1840;48.892;15.312;2023-02-28T16:36:21;-0.20;85.50
3648;DHT22;1840;48.892;15.312;2023-02-28T16:38:49;-0.30;85.80
3648;DHT22;1840;48.892;15.312;2023-02-28T16:41:19;-0.30;85.50
3648;DHT22;1840;48.892;15.312;2023-02-28T16:43:52;-0.30;85.60